createdAt,value
2017-05-29T00:00:47.760Z,20.08
2017-05-29T00:02:03.815Z,20.01
2017-05-29T00:03:19.497Z,19.95
2017-05-29T00:04:36.186Z,20.01
2017-05-29T00:05:52.342Z,20.07
2017-05-29T00:07:08.343Z,20
2017-05-29T00:08:24.611Z,20.04
2017-05-29T00:09:40.873Z,19.95
2017-05-29T00:10:57.134Z,19.97
2017-05-29T00:12:13.154Z,19.97
2017-05-29T00:13:28.144Z,19.97
2017-05-29T00:14:44.486Z,19.97
2017-05-29T00:15:59.174Z,19.92
2017-05-29T00:17:15.251Z,19.92
2017-05-29T00:18:31.317Z,19.88
2017-05-29T00:19:47.823Z,19.88
2017-05-29T00:21:03.881Z,19.89
2017-05-29T00:22:18.536Z,19.9
2017-05-29T00:23:34.421Z,19.79
2017-05-29T00:24:51.217Z,19.85
2017-05-29T00:26:07.003Z,19.85
2017-05-29T00:27:23.062Z,19.71
2017-05-29T00:28:38.787Z,19.74
2017-05-29T00:29:54.382Z,19.65
2017-05-29T00:31:09.840Z,19.71
2017-05-29T00:32:25.331Z,19.65
2017-05-29T00:33:40.823Z,19.68
2017-05-29T00:34:55.004Z,19.65
2017-05-29T00:36:10.474Z,19.68
2017-05-29T00:37:25.973Z,19.55
2017-05-29T00:38:41.416Z,19.53
2017-05-29T00:39:57.078Z,19.55
2017-05-29T00:41:12.824Z,19.49
2017-05-29T00:42:28.326Z,19.49
2017-05-29T00:43:43.408Z,19.42
2017-05-29T00:44:57.796Z,19.43
2017-05-29T00:46:13.317Z,19.43
2017-05-29T00:47:29.025Z,19.42
2017-05-29T00:48:43.135Z,19.4
2017-05-29T00:49:58.741Z,19.34
2017-05-29T00:51:12.908Z,19.37
2017-05-29T00:52:28.626Z,19.4
2017-05-29T00:53:44.193Z,19.39
2017-05-29T00:54:58.757Z,19.34
2017-05-29T00:56:14.245Z,19.34
2017-05-29T00:57:28.403Z,19.37
2017-05-29T00:58:42.622Z,19.34
2017-05-29T00:59:58.243Z,19.33
2017-05-29T01:01:13.701Z,19.39
2017-05-29T01:02:29.127Z,19.39
2017-05-29T01:03:44.873Z,19.3
2017-05-29T01:05:00.308Z,19.31
2017-05-29T01:06:15.784Z,19.31
2017-05-29T01:07:31.271Z,19.3
2017-05-29T01:08:46.793Z,19.27
2017-05-29T01:10:02.413Z,19.27
2017-05-29T01:11:17.825Z,19.27
2017-05-29T01:12:32.007Z,19.23
2017-05-29T01:13:47.662Z,19.21
2017-05-29T01:15:02.021Z,19.33
2017-05-29T01:16:17.493Z,19.3
2017-05-29T01:17:32.966Z,19.31
2017-05-29T01:18:48.034Z,19.34
2017-05-29T01:20:03.717Z,19.24
2017-05-29T01:21:19.131Z,19.25
2017-05-29T01:22:34.628Z,19.34
2017-05-29T01:23:50.028Z,19.35
2017-05-29T01:25:05.665Z,19.28
2017-05-29T01:26:21.294Z,19.23
2017-05-29T01:27:36.766Z,19.18
2017-05-29T01:28:52.235Z,19.12
2017-05-29T01:30:07.877Z,19.16
2017-05-29T01:31:22.054Z,19.15
2017-05-29T01:32:36.216Z,19.13
2017-05-29T01:33:51.797Z,19.16
2017-05-29T01:35:07.439Z,19.1
2017-05-29T01:36:22.863Z,19.12
2017-05-29T01:37:37.043Z,19.06
2017-05-29T01:38:52.493Z,19.05
2017-05-29T01:40:08.158Z,18.98
2017-05-29T01:41:22.466Z,18.97
2017-05-29T01:42:35.177Z,18.94
2017-05-29T01:43:50.640Z,18.97
2017-05-29T01:45:06.052Z,18.91
2017-05-29T01:46:21.734Z,18.94
2017-05-29T01:47:35.891Z,18.9
2017-05-29T01:48:50.098Z,18.78
2017-05-29T01:50:05.547Z,18.78
2017-05-29T01:51:21.523Z,18.82
2017-05-29T01:52:35.917Z,18.76
2017-05-29T01:53:51.966Z,18.8
2017-05-29T01:55:07.259Z,18.8
2017-05-29T01:56:22.922Z,18.87
2017-05-29T01:57:37.099Z,18.8
2017-05-29T01:58:51.279Z,18.87
2017-05-29T02:00:05.475Z,18.79
2017-05-29T02:01:21.197Z,18.71
2017-05-29T02:02:36.943Z,18.72
2017-05-29T02:03:52.400Z,18.69
2017-05-29T02:05:07.823Z,18.65
2017-05-29T02:06:23.502Z,18.67
2017-05-29T02:07:38.968Z,18.69
2017-05-29T02:08:54.448Z,18.6
2017-05-29T02:10:09.948Z,18.63
2017-05-29T02:11:24.284Z,18.63
2017-05-29T02:12:35.671Z,18.6
2017-05-29T02:13:51.179Z,18.56
2017-05-29T02:15:06.648Z,18.55
2017-05-29T02:16:22.283Z,18.56
2017-05-29T02:17:37.757Z,18.52
2017-05-29T02:18:53.198Z,18.6
2017-05-29T02:20:08.323Z,18.53
2017-05-29T02:21:24.012Z,18.6
2017-05-29T02:22:39.438Z,18.49
2017-05-29T02:23:54.899Z,18.47
2017-05-29T02:25:10.355Z,18.56
2017-05-29T02:26:26.117Z,18.56
2017-05-29T02:27:41.616Z,18.53
2017-05-29T02:28:57.362Z,18.41
2017-05-29T02:30:12.983Z,18.42
2017-05-29T02:31:28.616Z,18.37
2017-05-29T02:32:44.036Z,18.31
2017-05-29T02:33:59.855Z,18.41
2017-05-29T02:35:14.166Z,18.28
2017-05-29T02:36:28.567Z,18.3
2017-05-29T02:37:44.092Z,18.34
2017-05-29T02:38:59.566Z,18.4
2017-05-29T02:40:15.224Z,18.3
2017-05-29T02:41:30.936Z,18.41
2017-05-29T02:42:46.445Z,18.42
2017-05-29T02:44:01.868Z,18.34
2017-05-29T02:45:17.560Z,18.28
2017-05-29T02:46:33.281Z,18.32
2017-05-29T02:47:47.436Z,18.31
2017-05-29T02:49:01.518Z,18.3
2017-05-29T02:50:16.996Z,18.25
2017-05-29T02:51:32.679Z,18.17
2017-05-29T02:52:48.145Z,18.26
2017-05-29T02:54:03.593Z,18.19
2017-05-29T02:55:19.162Z,18.15
2017-05-29T02:56:34.870Z,18.09
2017-05-29T02:57:50.322Z,18.1
2017-05-29T02:59:05.778Z,18.1
2017-05-29T03:00:21.140Z,18.04
2017-05-29T03:01:35.138Z,18.1
2017-05-29T03:02:50.586Z,18.02
2017-05-29T03:04:05.066Z,18.07
2017-05-29T03:05:19.051Z,18.07
2017-05-29T03:06:33.397Z,18.09
2017-05-29T03:07:49.147Z,18.05
2017-05-29T03:09:04.544Z,18.07
2017-05-29T03:10:19.949Z,18.1
2017-05-29T03:11:35.422Z,18.12
2017-05-29T03:12:51.154Z,18.1
2017-05-29T03:14:05.093Z,18.15
2017-05-29T03:15:20.587Z,18.17
2017-05-29T03:16:36.066Z,18.12
2017-05-29T03:17:51.974Z,18.12
2017-05-29T03:19:07.386Z,18.1
2017-05-29T03:20:22.877Z,18.16
2017-05-29T03:21:38.564Z,18.12
2017-05-29T03:22:54.290Z,18.1
2017-05-29T03:24:09.697Z,18.1
2017-05-29T03:25:25.197Z,18.17
2017-05-29T03:26:40.624Z,18.16
2017-05-29T03:27:56.322Z,18.09
2017-05-29T03:29:11.827Z,18.09
2017-05-29T03:30:27.262Z,18.1
2017-05-29T03:31:42.708Z,18.15
2017-05-29T03:32:57.012Z,18.04
2017-05-29T03:34:43.269Z,18.04
2017-05-29T03:35:58.734Z,18.02
2017-05-29T03:37:13.124Z,18.09
2017-05-29T03:38:28.580Z,18.04
2017-05-29T03:39:43.965Z,18.05
2017-05-29T03:40:59.393Z,18.07
2017-05-29T03:42:15.059Z,18.05
2017-05-29T03:43:30.479Z,18.04
2017-05-29T03:44:46.114Z,18.02
2017-05-29T03:46:00.131Z,18.12
2017-05-29T03:47:15.746Z,18.15
2017-05-29T03:48:31.318Z,18.12
2017-05-29T03:49:45.475Z,18.13
2017-05-29T03:50:58.387Z,18.19
2017-05-29T03:52:13.974Z,18.05
2017-05-29T03:53:27.963Z,18.12
2017-05-29T03:54:42.109Z,18.1
2017-05-29T03:55:56.276Z,18.1
2017-05-29T03:57:11.945Z,18.1
2017-05-29T03:58:27.369Z,18.13
2017-05-29T03:59:43.036Z,18.1
2017-05-29T04:00:58.487Z,18.19
2017-05-29T04:02:14.166Z,18.16
2017-05-29T04:03:28.193Z,18.15
2017-05-29T04:04:42.409Z,18.19
2017-05-29T04:05:57.833Z,18.26
2017-05-29T04:07:11.955Z,18.26
2017-05-29T04:08:27.580Z,18.23
2017-05-29T04:09:43.010Z,18.23
2017-05-29T04:10:58.489Z,18.3
2017-05-29T04:12:13.907Z,18.28
2017-05-29T04:13:29.521Z,18.15
2017-05-29T04:14:45.102Z,18.1
2017-05-29T04:16:00.547Z,18.13
2017-05-29T04:17:16.036Z,18.19
2017-05-29T04:18:31.753Z,18.09
2017-05-29T04:19:47.200Z,18.12
2017-05-29T04:21:01.338Z,18.12
2017-05-29T04:22:16.773Z,18.09
2017-05-29T04:23:32.609Z,18.13
2017-05-29T04:24:48.104Z,18.1
2017-05-29T04:26:02.350Z,18.12
2017-05-29T04:27:17.854Z,18.13
2017-05-29T04:28:33.508Z,18.12
2017-05-29T04:29:48.909Z,18.1
2017-05-29T04:31:04.420Z,18.05
2017-05-29T04:32:19.855Z,18.12
2017-05-29T04:33:35.552Z,18.05
2017-05-29T04:34:51.033Z,18.13
2017-05-29T04:36:05.277Z,18.09
2017-05-29T04:37:20.680Z,18.09
2017-05-29T04:38:36.546Z,18.2
2017-05-29T04:39:52.013Z,18.23
2017-05-29T04:41:07.413Z,18.3
2017-05-29T04:42:22.834Z,18.23
2017-05-29T04:43:38.383Z,18.37
2017-05-29T04:44:52.550Z,18.31
2017-05-29T04:46:06.742Z,18.4
2017-05-29T04:47:22.229Z,18.37
2017-05-29T04:48:37.870Z,18.44
2017-05-29T04:49:53.354Z,18.42
2017-05-29T04:51:08.768Z,18.52
2017-05-29T04:52:22.976Z,18.53
2017-05-29T04:54:09.162Z,18.73
2017-05-29T04:55:23.319Z,18.72
2017-05-29T04:56:37.289Z,18.76
2017-05-29T04:57:52.736Z,18.88
2017-05-29T04:59:08.442Z,18.87
2017-05-29T05:00:23.489Z,18.86
2017-05-29T05:01:39.224Z,18.93
2017-05-29T05:02:54.667Z,19
2017-05-29T05:04:08.891Z,18.94
2017-05-29T05:05:24.313Z,18.94
2017-05-29T05:06:39.781Z,19.03
2017-05-29T05:07:55.298Z,18.94
2017-05-29T05:09:10.940Z,18.94
2017-05-29T05:10:24.953Z,18.82
2017-05-29T05:11:40.618Z,18.8
2017-05-29T05:12:56.067Z,18.8
2017-05-29T05:14:11.739Z,18.82
2017-05-29T05:15:25.928Z,18.8
2017-05-29T05:16:41.513Z,18.86
2017-05-29T05:17:55.694Z,18.88
2017-05-29T05:19:11.534Z,18.97
2017-05-29T05:20:26.972Z,18.97
2017-05-29T05:21:41.114Z,18.98
2017-05-29T05:22:55.285Z,18.98
2017-05-29T05:24:10.654Z,18.95
2017-05-29T05:25:26.050Z,18.97
2017-05-29T05:26:40.196Z,18.91
2017-05-29T05:27:55.649Z,18.95
2017-05-29T05:29:11.281Z,18.88
2017-05-29T05:30:25.655Z,18.88
2017-05-29T05:31:41.146Z,18.8
2017-05-29T05:32:56.561Z,18.8
2017-05-29T05:34:12.249Z,18.84
2017-05-29T05:35:27.715Z,18.8
2017-05-29T05:36:41.945Z,18.91
2017-05-29T05:37:57.414Z,18.94
2017-05-29T05:39:13.047Z,19.06
2017-05-29T05:40:28.554Z,19.08
2017-05-29T05:41:43.974Z,19.12
2017-05-29T05:42:59.457Z,19.13
2017-05-29T05:44:15.121Z,19.16
2017-05-29T05:45:30.482Z,19.18
2017-05-29T05:46:45.984Z,19.19
2017-05-29T05:48:01.376Z,19.24
2017-05-29T05:49:17.061Z,19.27
2017-05-29T05:50:32.559Z,19.31
2017-05-29T05:51:47.969Z,19.3
2017-05-29T05:53:02.008Z,19.33
2017-05-29T05:54:17.690Z,19.34
2017-05-29T05:55:33.186Z,19.43
2017-05-29T05:56:48.706Z,19.53
2017-05-29T05:58:04.116Z,19.56
2017-05-29T05:59:19.874Z,19.55
2017-05-29T06:00:35.306Z,19.58
2017-05-29T06:01:48.175Z,19.53
2017-05-29T06:03:03.235Z,19.53
2017-05-29T06:04:18.901Z,19.6
2017-05-29T06:05:34.571Z,19.58
2017-05-29T06:06:50.116Z,19.55
2017-05-29T06:08:04.298Z,19.55
2017-05-29T06:09:19.908Z,19.42
2017-05-29T06:10:35.368Z,19.5
2017-05-29T06:11:50.773Z,19.56
2017-05-29T06:13:04.903Z,19.56
2017-05-29T06:14:19.009Z,19.53
2017-05-29T06:15:34.824Z,19.6
2017-05-29T06:16:50.289Z,19.65
2017-05-29T06:18:05.760Z,19.61
2017-05-29T06:19:19.931Z,19.61
2017-05-29T06:20:35.572Z,19.7
2017-05-29T06:21:51.075Z,19.64
2017-05-29T06:23:05.184Z,19.67
2017-05-29T06:24:20.633Z,19.71
2017-05-29T06:25:33.514Z,19.8
2017-05-29T06:26:48.912Z,19.71
2017-05-29T06:28:04.353Z,19.79
2017-05-29T06:29:19.967Z,19.83
2017-05-29T06:30:35.647Z,19.82
2017-05-29T06:31:51.048Z,19.79
2017-05-29T06:33:05.242Z,19.79
2017-05-29T06:34:20.388Z,19.73
2017-05-29T06:35:34.340Z,19.74
2017-05-29T06:36:49.725Z,19.73
2017-05-29T06:38:02.663Z,19.56
2017-05-29T06:39:18.148Z,19.65
2017-05-29T06:40:32.806Z,19.68
2017-05-29T06:41:48.299Z,19.7
2017-05-29T06:43:02.322Z,19.64
2017-05-29T06:44:17.780Z,19.7
2017-05-29T06:45:33.398Z,19.74
2017-05-29T06:46:48.894Z,19.71
2017-05-29T06:48:03.122Z,19.65
2017-05-29T06:49:18.564Z,19.61
2017-05-29T06:50:34.174Z,19.68
2017-05-29T06:51:48.348Z,19.73
2017-05-29T06:53:04.171Z,19.8
2017-05-29T06:54:19.567Z,19.83
2017-05-29T06:55:35.192Z,19.92
2017-05-29T06:56:49.046Z,19.95
2017-05-29T06:58:03.094Z,20
2017-05-29T06:59:18.548Z,20.03
2017-05-29T07:00:34.200Z,20.05
2017-05-29T07:01:48.466Z,20.16
2017-05-29T07:03:03.882Z,20.23
2017-05-29T07:04:19.693Z,20.23
2017-05-29T07:05:33.714Z,20.31
2017-05-29T07:06:48.040Z,20.27
2017-05-29T07:08:03.499Z,20.39
2017-05-29T07:09:19.062Z,20.42
2017-05-29T07:10:33.206Z,20.48
2017-05-29T07:11:48.855Z,20.76
2017-05-29T07:13:04.282Z,20.78
2017-05-29T07:14:18.419Z,20.82
2017-05-29T07:15:33.823Z,20.91
2017-05-29T07:16:48.214Z,20.98
2017-05-29T07:18:03.671Z,21.18
2017-05-29T07:19:17.682Z,21.13
2017-05-29T07:20:33.173Z,21.2
2017-05-29T07:21:48.855Z,21.34
2017-05-29T07:23:04.388Z,21.31
2017-05-29T07:24:19.806Z,21.41
2017-05-29T07:25:33.910Z,21.48
2017-05-29T07:26:49.642Z,21.38
2017-05-29T07:28:03.642Z,21.53
2017-05-29T07:29:19.073Z,21.57
2017-05-29T07:30:33.230Z,21.6
2017-05-29T07:31:48.983Z,21.56
2017-05-29T07:33:04.443Z,21.68
2017-05-29T07:34:19.903Z,21.68
2017-05-29T07:35:35.380Z,21.69
2017-05-29T07:36:51.044Z,21.75
2017-05-29T07:38:06.551Z,21.72
2017-05-29T07:39:21.998Z,21.88
2017-05-29T07:40:37.474Z,21.88
2017-05-29T07:41:53.151Z,22.02
2017-05-29T07:43:08.570Z,22.12
2017-05-29T07:44:22.788Z,22.27
2017-05-29T07:45:38.259Z,22.34
2017-05-29T07:46:53.947Z,22.42
2017-05-29T07:48:09.382Z,22.58
2017-05-29T07:49:24.854Z,22.63
2017-05-29T07:50:38.996Z,22.64
2017-05-29T07:51:54.988Z,22.63
2017-05-29T07:53:10.444Z,22.64
2017-05-29T07:54:25.925Z,22.68
2017-05-29T07:55:41.563Z,22.76
2017-05-29T07:56:57.295Z,22.85
2017-05-29T07:58:12.456Z,22.93
2017-05-29T07:59:26.593Z,23.08
2017-05-29T08:00:42.029Z,23.08
2017-05-29T08:01:57.703Z,23.16
2017-05-29T08:03:13.201Z,23.25
2017-05-29T08:04:27.376Z,23.17
2017-05-29T08:05:41.621Z,23.2
2017-05-29T08:06:57.517Z,23.16
2017-05-29T08:08:13.246Z,23.18
2017-05-29T08:09:28.729Z,23.24
2017-05-29T08:10:44.191Z,23.2
2017-05-29T08:11:58.670Z,23.2
2017-05-29T08:13:14.417Z,23.21
2017-05-29T08:14:29.846Z,23.16
2017-05-29T08:15:45.589Z,23.23
2017-05-29T08:16:59.839Z,23.23
2017-05-29T08:18:15.337Z,23.18
2017-05-29T08:19:31.021Z,23.16
2017-05-29T08:20:45.083Z,23.14
2017-05-29T08:22:00.713Z,23.2
2017-05-29T08:23:16.241Z,23.39
2017-05-29T08:24:31.715Z,23.27
2017-05-29T08:25:47.221Z,23.23
2017-05-29T08:27:03.045Z,23.13
2017-05-29T08:28:18.551Z,23.18
2017-05-29T08:29:33.983Z,23.05
2017-05-29T08:30:48.096Z,23.05
2017-05-29T08:32:03.554Z,23.02
2017-05-29T08:33:17.763Z,23.11
2017-05-29T08:34:33.245Z,23.09
2017-05-29T08:35:48.682Z,23.11
2017-05-29T08:37:04.457Z,23.11
2017-05-29T08:38:20.239Z,23.06
2017-05-29T08:39:35.747Z,23.14
2017-05-29T08:40:51.231Z,23.21
2017-05-29T08:42:07.005Z,23.28
2017-05-29T08:43:22.512Z,23.42
2017-05-29T08:44:37.944Z,23.57
2017-05-29T08:45:53.446Z,23.65
2017-05-29T08:47:09.140Z,23.75
2017-05-29T08:48:23.254Z,23.91
2017-05-29T08:49:37.400Z,24.06
2017-05-29T08:50:53.027Z,24.35
2017-05-29T08:52:08.480Z,24.54
2017-05-29T08:53:22.943Z,24.8
2017-05-29T08:54:38.686Z,25.17
2017-05-29T08:55:54.117Z,25.28
2017-05-29T08:57:08.296Z,25.55
2017-05-29T08:58:22.664Z,25.58
2017-05-29T08:59:38.122Z,25.71
2017-05-29T09:00:53.590Z,25.77
2017-05-29T09:02:08.693Z,25.92
2017-05-29T09:03:24.394Z,25.99
2017-05-29T09:04:39.872Z,26.06
2017-05-29T09:05:55.305Z,26.07
2017-05-29T09:07:08.212Z,26.18
2017-05-29T09:08:23.889Z,26.3
2017-05-29T09:09:38.258Z,26.16
2017-05-29T09:10:53.424Z,26.22
2017-05-29T09:12:07.546Z,26.37
2017-05-29T09:13:23.319Z,26.52
2017-05-29T09:14:38.979Z,26.83
2017-05-29T09:15:54.387Z,26.86
2017-05-29T09:17:08.582Z,26.93
2017-05-29T09:18:24.140Z,26.95
2017-05-29T09:19:39.817Z,26.99
2017-05-29T09:20:55.327Z,26.98
2017-05-29T09:22:10.752Z,27.03
2017-05-29T09:23:26.196Z,27.24
2017-05-29T09:24:41.796Z,27.35
2017-05-29T09:25:55.987Z,27.65
2017-05-29T09:27:11.495Z,27.72
2017-05-29T09:28:26.972Z,27.9
2017-05-29T09:29:42.475Z,28.01
2017-05-29T09:30:56.301Z,28.24
2017-05-29T09:32:11.809Z,28.34
2017-05-29T09:33:27.541Z,28.45
2017-05-29T09:34:40.296Z,28.49
2017-05-29T09:35:54.386Z,28.88
2017-05-29T09:37:09.799Z,29.02
2017-05-29T09:38:25.656Z,29.31
2017-05-29T09:39:41.131Z,29.32
2017-05-29T09:40:55.173Z,29.31
2017-05-29T09:42:10.625Z,29.44
2017-05-29T09:43:26.297Z,29.39
2017-05-29T09:44:42.035Z,29.5
2017-05-29T09:45:57.560Z,29.51
2017-05-29T09:47:13.068Z,29.45
2017-05-29T09:48:28.669Z,29.48
2017-05-29T09:49:42.693Z,29.55
2017-05-29T09:50:58.170Z,29.63
2017-05-29T09:52:12.348Z,29.65
2017-05-29T09:53:26.585Z,29.69
2017-05-29T09:54:42.281Z,30.19
2017-05-29T09:55:56.437Z,30.6
2017-05-29T09:57:11.897Z,30.59
2017-05-29T09:58:27.318Z,30.78
2017-05-29T09:59:41.768Z,30.98
2017-05-29T10:00:57.368Z,31.25
2017-05-29T10:02:11.422Z,31.58
2017-05-29T10:03:26.878Z,31.87
2017-05-29T10:04:43.277Z,32.02
2017-05-29T10:05:57.398Z,32.31
2017-05-29T10:07:12.885Z,32.47
2017-05-29T10:08:28.379Z,32.53
2017-05-29T10:09:44.145Z,32.69
2017-05-29T10:10:59.623Z,32.63
2017-05-29T10:12:15.160Z,32.7
2017-05-29T10:13:30.690Z,32.66
2017-05-29T10:14:46.362Z,32.73
2017-05-29T10:16:02.015Z,32.73
2017-05-29T10:17:17.701Z,32.78
2017-05-29T10:18:33.193Z,32.97
2017-05-29T10:19:48.882Z,33.01
2017-05-29T10:21:03.044Z,33.11
2017-05-29T10:22:18.544Z,33.13
2017-05-29T10:23:34.046Z,33.23
2017-05-29T10:24:49.721Z,33.22
2017-05-29T10:26:05.210Z,33.05
2017-05-29T10:27:21.021Z,33.03
2017-05-29T10:28:35.149Z,32.94
2017-05-29T10:29:51.075Z,32.94
2017-05-29T10:31:05.229Z,32.66
2017-05-29T10:32:19.420Z,32.54
2017-05-29T10:33:34.889Z,32.36
2017-05-29T10:34:50.561Z,32.07
2017-05-29T10:36:04.718Z,32.09
2017-05-29T10:37:20.245Z,32.17
2017-05-29T10:38:35.731Z,32.21
2017-05-29T10:39:51.356Z,32.19
2017-05-29T10:41:06.937Z,32.22
2017-05-29T10:42:22.413Z,32.29
2017-05-29T10:43:37.899Z,32.41
2017-05-29T10:44:52.268Z,32.54
2017-05-29T10:46:06.478Z,32.53
2017-05-29T10:47:22.262Z,32.51
2017-05-29T10:48:37.800Z,32.51
2017-05-29T10:49:53.517Z,32.44
2017-05-29T10:51:09.259Z,32.43
2017-05-29T10:52:24.720Z,32.38
2017-05-29T10:53:40.172Z,32.38
2017-05-29T10:54:54.403Z,32.46
2017-05-29T10:56:09.849Z,32.58
2017-05-29T10:57:25.375Z,32.65
2017-05-29T10:58:40.856Z,32.8
2017-05-29T10:59:53.937Z,32.54
2017-05-29T11:01:09.440Z,32.54
2017-05-29T11:02:24.873Z,32.68
2017-05-29T11:03:40.562Z,32.62
2017-05-29T11:04:56.200Z,32.51
2017-05-29T11:06:10.444Z,32.46
2017-05-29T11:07:25.873Z,32.44
2017-05-29T11:08:41.409Z,32.46
2017-05-29T11:09:57.064Z,32.56
2017-05-29T11:11:11.210Z,32.75
2017-05-29T11:12:26.664Z,32.89
2017-05-29T11:13:40.942Z,33.13
2017-05-29T11:14:56.219Z,33.27
2017-05-29T11:16:10.686Z,33.26
2017-05-29T11:17:26.146Z,33.17
2017-05-29T11:18:41.638Z,33.1
2017-05-29T11:19:57.329Z,33
2017-05-29T11:21:12.945Z,32.75
2017-05-29T11:22:27.141Z,32.66
2017-05-29T11:23:41.307Z,32.7
2017-05-29T11:24:56.844Z,32.6
2017-05-29T11:26:12.561Z,32.6
2017-05-29T11:27:28.073Z,32.65
2017-05-29T11:28:43.547Z,32.58
2017-05-29T11:29:58.989Z,32.58
2017-05-29T11:31:14.735Z,32.72
2017-05-29T11:32:30.173Z,32.66
2017-05-29T11:33:45.670Z,32.68
2017-05-29T11:35:01.819Z,32.68
2017-05-29T11:36:15.847Z,32.68
2017-05-29T11:37:30.231Z,32.8
2017-05-29T11:38:45.967Z,32.92
2017-05-29T11:40:00.428Z,33.01
2017-05-29T11:41:14.910Z,33.11
2017-05-29T11:42:30.400Z,33.2
2017-05-29T11:43:45.901Z,33.19
2017-05-29T11:45:01.655Z,33.26
2017-05-29T11:46:17.336Z,33.22
2017-05-29T11:47:32.826Z,33.22
2017-05-29T11:48:48.325Z,33.26
2017-05-29T11:50:04.123Z,33.22
2017-05-29T11:51:19.945Z,33.03
2017-05-29T11:52:35.455Z,32.98
2017-05-29T11:53:50.894Z,32.96
2017-05-29T11:55:05.970Z,32.85
2017-05-29T11:56:18.936Z,32.8
2017-05-29T11:57:34.438Z,32.84
2017-05-29T11:58:48.654Z,32.73
2017-05-29T12:00:04.195Z,32.69
2017-05-29T12:01:18.868Z,32.65
2017-05-29T12:02:34.384Z,32.72
2017-05-29T12:03:49.907Z,32.81
2017-05-29T12:05:04.140Z,32.81
2017-05-29T12:06:18.412Z,32.92
2017-05-29T12:07:32.544Z,33.03
2017-05-29T12:08:48.068Z,33.05
2017-05-29T12:10:03.499Z,33.1
2017-05-29T12:11:19.515Z,32.92
2017-05-29T12:12:34.975Z,32.75
2017-05-29T12:13:49.135Z,32.8
2017-05-29T12:15:04.646Z,32.63
2017-05-29T12:16:20.291Z,32.58
2017-05-29T12:17:35.767Z,32.56
2017-05-29T12:18:51.254Z,32.59
2017-05-29T12:20:06.725Z,32.59
2017-05-29T12:21:22.492Z,32.6
2017-05-29T12:22:35.323Z,32.38
2017-05-29T12:23:47.999Z,32.31
2017-05-29T12:25:03.482Z,32.35
2017-05-29T12:26:19.501Z,32.21
2017-05-29T12:27:35.017Z,32.06
2017-05-29T12:28:50.507Z,31.98
2017-05-29T12:30:04.670Z,31.82
2017-05-29T12:31:20.620Z,31.63
2017-05-29T12:32:36.204Z,31.53
2017-05-29T12:33:50.237Z,31.51
2017-05-29T12:35:05.754Z,31.31
2017-05-29T12:36:21.128Z,31.35
2017-05-29T12:37:36.657Z,31.28
2017-05-29T12:38:52.116Z,31.28
2017-05-29T12:40:06.316Z,31.19
2017-05-29T12:41:22.232Z,31.16
2017-05-29T12:42:35.112Z,31.1
2017-05-29T12:43:49.128Z,30.86
2017-05-29T12:45:04.549Z,30.85
2017-05-29T12:46:18.723Z,30.67
2017-05-29T12:47:34.512Z,30.66
2017-05-29T12:48:50.204Z,30.59
2017-05-29T12:50:05.706Z,30.67
2017-05-29T12:51:21.241Z,30.59
2017-05-29T12:52:37.261Z,30.59
2017-05-29T12:53:51.452Z,30.53
2017-05-29T12:55:06.974Z,30.48
2017-05-29T12:56:22.455Z,30.39
2017-05-29T12:57:38.196Z,30.3
2017-05-29T12:58:53.730Z,30.25
2017-05-29T13:00:09.194Z,30.17
2017-05-29T13:01:24.712Z,30.17
2017-05-29T13:02:40.610Z,30.17
2017-05-29T13:03:56.150Z,30.16
2017-05-29T13:05:10.209Z,30.04
2017-05-29T13:06:25.721Z,30.07
2017-05-29T13:07:41.196Z,30.04
2017-05-29T13:08:56.312Z,30
2017-05-29T13:10:11.831Z,29.97
2017-05-29T13:11:27.300Z,29.95
2017-05-29T13:12:41.710Z,29.75
2017-05-29T13:13:56.837Z,29.75
2017-05-29T13:15:12.234Z,29.67
2017-05-29T13:16:26.467Z,29.67
2017-05-29T13:17:42.152Z,29.72
2017-05-29T13:18:57.633Z,29.73
2017-05-29T13:20:13.110Z,29.72
2017-05-29T13:21:28.548Z,29.77
2017-05-29T13:22:44.216Z,29.75
2017-05-29T13:23:59.673Z,29.67
2017-05-29T13:25:13.794Z,29.69
2017-05-29T13:26:28.190Z,29.73
2017-05-29T13:27:42.553Z,29.67
2017-05-29T13:28:57.958Z,29.47
2017-05-29T13:30:13.433Z,29.39
2017-05-29T13:31:28.921Z,29.54
2017-05-29T13:32:44.901Z,29.57
2017-05-29T13:33:58.924Z,29.47
2017-05-29T13:35:14.360Z,29.54
2017-05-29T13:36:29.909Z,29.47
2017-05-29T13:37:45.643Z,29.43
2017-05-29T13:39:01.123Z,29.45
2017-05-29T13:40:15.421Z,29.48
2017-05-29T13:41:30.925Z,29.47
2017-05-29T13:42:46.658Z,29.48
2017-05-29T13:44:02.209Z,29.36
2017-05-29T13:45:17.662Z,29.44
2017-05-29T13:46:31.683Z,29.48
2017-05-29T13:47:47.441Z,29.38
2017-05-29T13:49:03.139Z,29.39
2017-05-29T13:50:18.651Z,29.4
2017-05-29T13:51:34.116Z,29.4
2017-05-29T13:52:49.782Z,29.39
2017-05-29T13:54:05.278Z,29.33
2017-05-29T13:55:20.855Z,29.21
2017-05-29T13:56:36.418Z,29.16
2017-05-29T13:57:52.136Z,29.13
2017-05-29T13:59:06.210Z,29.16
2017-05-29T14:00:21.680Z,29.09
2017-05-29T14:01:37.157Z,29.14
2017-05-29T14:02:51.365Z,29.13
2017-05-29T14:04:05.568Z,29.26
2017-05-29T14:05:21.053Z,29.25
2017-05-29T14:06:36.563Z,29.2
2017-05-29T14:07:52.304Z,29.17
2017-05-29T14:09:07.882Z,29.01
2017-05-29T14:10:23.479Z,29.06
2017-05-29T14:11:39.134Z,29.03
2017-05-29T14:12:55.003Z,28.99
2017-05-29T14:14:09.206Z,28.99
2017-05-29T14:15:24.675Z,29.03
2017-05-29T14:16:40.140Z,28.99
2017-05-29T14:17:56.022Z,29.03
2017-05-29T14:19:11.599Z,29.02
2017-05-29T14:20:27.055Z,29.03
2017-05-29T14:21:42.550Z,28.98
2017-05-29T14:22:58.452Z,29.03
2017-05-29T14:24:13.989Z,29.03
2017-05-29T14:25:29.463Z,29.02
2017-05-29T14:26:43.220Z,28.94
2017-05-29T14:27:58.924Z,28.77
2017-05-29T14:29:14.433Z,28.84
2017-05-29T14:30:29.549Z,28.91
2017-05-29T14:31:45.155Z,28.87
2017-05-29T14:32:59.598Z,28.95
2017-05-29T14:34:15.008Z,28.88
2017-05-29T14:35:30.604Z,28.91
2017-05-29T14:36:45.856Z,28.64
2017-05-29T14:38:01.534Z,28.51
2017-05-29T14:39:15.678Z,28.46
2017-05-29T14:40:31.241Z,28.54
2017-05-29T14:41:46.729Z,28.36
2017-05-29T14:43:02.465Z,28.49
2017-05-29T14:44:17.976Z,28.46
2017-05-29T14:45:32.238Z,28.49
2017-05-29T14:46:46.405Z,28.39
2017-05-29T14:48:02.174Z,28.46
2017-05-29T14:49:16.566Z,28.44
2017-05-29T14:50:32.039Z,28.49
2017-05-29T14:51:46.196Z,28.58
2017-05-29T14:53:01.724Z,28.54
2017-05-29T14:54:17.414Z,28.56
2017-05-29T14:55:31.579Z,28.58
2017-05-29T14:56:47.084Z,28.46
2017-05-29T14:58:02.594Z,28.56
2017-05-29T14:59:18.683Z,28.53
2017-05-29T15:00:34.157Z,28.67
2017-05-29T15:01:49.657Z,28.57
2017-05-29T15:03:05.207Z,28.46
2017-05-29T15:04:20.921Z,28.44
2017-05-29T15:05:36.710Z,28.42
2017-05-29T15:06:50.935Z,28.45
2017-05-29T15:08:05.012Z,28.44
2017-05-29T15:09:20.722Z,28.54
2017-05-29T15:10:36.265Z,28.45
2017-05-29T15:11:52.004Z,28.46
2017-05-29T15:13:07.131Z,28.45
2017-05-29T15:14:22.805Z,28.44
2017-05-29T15:15:38.371Z,28.49
2017-05-29T15:16:53.953Z,28.41
2017-05-29T15:18:09.643Z,28.5
2017-05-29T15:19:24.029Z,28.49
2017-05-29T15:20:39.540Z,28.42
2017-05-29T15:21:55.016Z,28.44
2017-05-29T15:23:10.437Z,28.44
2017-05-29T15:24:26.116Z,28.45
2017-05-29T15:25:41.673Z,28.49
2017-05-29T15:26:57.260Z,28.38
2017-05-29T15:28:12.713Z,28.44
2017-05-29T15:29:27.137Z,28.41
2017-05-29T15:30:42.893Z,28.49
2017-05-29T15:31:56.919Z,28.57
2017-05-29T15:33:12.445Z,28.45
2017-05-29T15:34:26.780Z,28.5
2017-05-29T15:35:41.071Z,28.46
2017-05-29T15:36:56.604Z,28.51
2017-05-29T15:38:10.725Z,28.41
2017-05-29T15:39:26.413Z,28.38
2017-05-29T15:40:40.433Z,28.35
2017-05-29T15:41:55.907Z,28.29
2017-05-29T15:43:11.417Z,28.29
2017-05-29T15:44:27.124Z,28.31
2017-05-29T15:45:42.664Z,28.31
2017-05-29T15:46:58.082Z,28.29
2017-05-29T15:48:13.629Z,28.23
2017-05-29T15:49:29.426Z,28.22
2017-05-29T15:50:44.907Z,28.22
2017-05-29T15:51:59.105Z,28.24
2017-05-29T15:53:12.891Z,28.24
2017-05-29T15:54:28.683Z,28.19
2017-05-29T15:55:44.485Z,28.29
2017-05-29T15:56:58.928Z,28.27
2017-05-29T15:58:14.565Z,28.26
2017-05-29T15:59:30.233Z,28.32
2017-05-29T16:00:45.702Z,28.29
2017-05-29T16:02:01.226Z,28.31
2017-05-29T16:03:16.721Z,28.27
2017-05-29T16:04:31.091Z,28.26
2017-05-29T16:05:46.550Z,28.32
2017-05-29T16:07:02.299Z,28.27
2017-05-29T16:08:17.802Z,28.24
2017-05-29T16:09:33.391Z,28.27
2017-05-29T16:10:48.891Z,28.26
2017-05-29T16:12:04.351Z,28.32
2017-05-29T16:13:19.860Z,28.22